Time;durP1;ratioP1;P1;durP2;ratioP2;P2;SDS_P1;SDS_P2;PMS_P1;PMS_P2;Temp;Humidity;BMP_temperature;BMP_pressure;BME280_temperature;BME280_humidity;BME280_pressure;Samples;Min_cycle;Max_cycle;Signal;HPM_P1;HPM_P2
2023/04/14 00:01:55;;;;;;;10.77;2.55;;;;;;;;;;5031938;28;20037;-47
2023/04/14 00:04:21;;;;;;;7.80;2.50;;;;;;;;;;5037710;28;20487;-47
2023/04/14 00:06:46;;;;;;;10.40;1.83;;;2.80;99.90;;;;;;5037260;28;20091;-47
2023/04/14 00:09:13;;;;;;;5.45;1.65;;;;;;;;;;5035650;28;20059;-48
2023/04/14 00:11:39;;;;;;;8.38;2.08;;;;;;;;;;5034750;28;20836;-46
2023/04/14 00:14:05;;;;;;;11.48;2.42;;;;;;;;;;5031434;28;20045;-49
2023/04/14 00:16:32;;;;;;;8.48;2.13;;;;;;;;;;5041072;28;20119;-48
2023/04/14 00:18:58;;;;;;;8.38;1.75;;;;;;;;;;5039953;28;20087;-47
2023/04/14 00:21:23;;;;;;;9.15;2.00;;;2.70;99.90;;;;;;5032539;28;20064;-49
2023/04/14 00:23:49;;;;;;;10.57;2.30;;;;;;;;;;5035474;28;20497;-46
2023/04/14 00:26:16;;;;;;;7.68;1.73;;;;;;;;;;5030536;28;20037;-46
2023/04/14 00:28:42;;;;;;;8.20;2.05;;;;;;;;;;5037184;28;20123;-41
2023/04/14 00:31:08;;;;;;;6.78;2.15;;;;;;;;;;5038585;28;20120;-40
2023/04/14 00:33:34;;;;;;;7.32;1.55;;;;;;;;;;5016570;28;20103;-41
2023/04/14 00:36:00;;;;;;;6.47;2.15;;;1.70;99.90;;;;;;5031539;28;20124;-40
2023/04/14 00:38:26;;;;;;;5.35;1.90;;;;;;;;;;5033145;28;20116;-40
2023/04/14 00:40:52;;;;;;;6.03;1.80;;;;;;;;;;5040142;28;20037;-40
2023/04/14 00:43:18;;;;;;;13.43;1.85;;;2.20;99.90;;;;;;5011287;28;20106;-40
2023/04/14 00:45:46;;;;;;;9.38;2.13;;;2.20;99.90;;;;;;5038827;28;20559;-42
2023/04/14 00:48:13;;;;;;;9.75;1.67;;;2.10;99.90;;;;;;5028788;28;20140;-40
2023/04/14 00:50:39;;;;;;;8.43;1.98;;;2.00;99.90;;;;;;5037935;28;20057;-42
2023/04/14 00:53:05;;;;;;;7.55;1.83;;;;;;;;;;5041599;28;20147;-41
2023/04/14 00:55:32;;;;;;;7.90;1.88;;;2.00;99.90;;;;;;5028273;28;20045;-41
2023/04/14 00:58:00;;;;;;;6.97;3.03;;;1.90;99.90;;;;;;5029253;28;20069;-41
2023/04/14 01:00:26;;;;;;;7.30;1.92;;;;;;;;;;5034647;28;20523;-41
2023/04/14 01:02:52;;;;;;;6.95;1.58;;;;;;;;;;5039234;28;20052;-40
2023/04/14 01:05:18;;;;;;;11.32;2.10;;;2.00;99.90;;;;;;5035307;28;20049;-41
2023/04/14 01:07:45;;;;;;;7.07;2.42;;;1.90;99.90;;;;;;5032579;28;20044;-42
2023/04/14 01:10:11;;;;;;;10.02;2.15;;;1.80;99.90;;;;;;5032528;28;20045;-40
2023/04/14 01:13:20;;;;;;;11.80;2.35;;;1.90;99.90;;;;;;5036829;28;20050;-40
2023/04/14 01:15:58;;;;;;;9.05;2.58;;;2.20;99.90;;;;;;5022939;28;20398;-41
2023/04/14 01:18:26;;;;;;;10.55;2.22;;;1.90;99.90;;;;;;5032645;28;20051;-42
2023/04/14 01:21:01;;;;;;;6.35;2.08;;;2.00;99.90;;;;;;5030410;28;20100;-41
2023/04/14 01:23:34;;;;;;;10.85;2.47;;;2.10;99.90;;;;;;5035112;28;20546;-40
2023/04/14 01:26:19;;;;;;;5.38;1.70;;;2.00;99.90;;;;;;5033929;28;20045;-41
2023/04/14 01:28:50;;;;;;;9.27;2.30;;;;;;;;;;5027827;28;20041;-41
2023/04/14 01:34:59;;;;;;;12.52;4.03;;;2.30;99.90;;;;;;5042906;28;20052;-42
2023/04/14 01:37:29;;;;;;;7.38;2.30;;;2.30;99.90;;;;;;5026973;28;20084;-43
2023/04/14 01:40:00;;;;;;;9.15;2.10;;;2.40;99.90;;;;;;5026514;28;20155;-41
2023/04/14 01:42:31;;;;;;;9.30;2.30;;;2.10;99.90;;;;;;5032524;28;20049;-41
2023/04/14 01:45:05;;;;;;;8.00;1.90;;;2.70;99.90;;;;;;5031321;28;20041;-41
2023/04/14 01:47:32;;;;;;;9.50;2.65;;;2.60;99.90;;;;;;5037185;28;20116;-41
2023/04/14 01:49:59;;;;;;;7.30;2.50;;;2.70;99.90;;;;;;5035196;28;20053;-42
2023/04/14 01:52:27;;;;;;;6.57;2.70;;;2.90;99.90;;;;;;5035116;28;20042;-41
2023/04/14 02:21:14;;;;;;;7.95;2.38;;;2.70;99.90;;;;;;5017063;28;20145;-42
2023/04/14 02:23:40;;;;;;;9.43;2.40;;;;;;;;;;5031817;28;20127;-44
2023/04/14 02:26:20;;;;;;;6.10;2.63;;;2.70;99.90;;;;;;5035089;28;20051;-41
2023/04/14 02:28:57;;;;;;;10.57;4.85;;;3.10;99.90;;;;;;5018134;28;20646;-41
2023/04/14 02:31:26;;;;;;;10.55;3.42;;;2.90;99.90;;;;;;5032962;28;20170;-42
2023/04/14 02:33:53;;;;;;;7.88;2.17;;;3.00;99.90;;;;;;5036538;28;20741;-42
2023/04/14 02:36:31;;;;;;;6.55;2.45;;;2.80;99.90;;;;;;5027458;28;20046;-42
2023/04/14 02:39:05;;;;;;;9.10;2.28;;;3.30;99.90;;;;;;5031173;28;20045;-41
2023/04/14 02:41:34;;;;;;;10.20;2.55;;;3.70;99.90;;;;;;5030134;28;20041;-42
2023/04/14 02:44:07;;;;;;;6.43;2.78;;;3.30;99.90;;;;;;5037239;28;20049;-41
2023/04/14 02:46:39;;;;;;;9.52;2.50;;;3.20;99.90;;;;;;5026617;28;20754;-41
2023/04/14 02:49:06;;;;;;;5.80;2.10;;;3.10;99.90;;;;;;5037960;28;20048;-41
2023/04/14 02:51:36;;;;;;;10.07;2.08;;;3.40;99.90;;;;;;5036928;28;20041;-41
2023/04/14 02:54:03;;;;;;;7.13;2.17;;;3.50;99.90;;;;;;5035733;28;20049;-42
2023/04/14 02:56:29;;;;;;;10.88;2.58;;;3.30;99.90;;;;;;5000971;28;20049;-41
2023/04/14 02:58:56;;;;;;;8.82;3.22;;;;;;;;;;5031245;28;20044;-43
2023/04/14 03:01:22;;;;;;;8.65;2.58;;;;;;;;;;5029696;28;20132;-43
2023/04/14 03:03:49;;;;;;;7.40;3.20;;;3.70;99.90;;;;;;5032017;28;20041;-40
2023/04/14 03:06:15;;;;;;;6.35;2.33;;;3.70;99.90;;;;;;5026373;28;20076;-43
2023/04/14 03:08:42;;;;;;;10.02;2.90;;;3.70;99.90;;;;;;5024999;28;20506;-41
2023/04/14 03:11:10;;;;;;;4.53;1.98;;;3.70;99.90;;;;;;5031907;28;20052;-41
2023/04/14 03:13:39;;;;;;;4.82;2.15;;;3.70;99.90;;;;;;5020872;28;20099;-42
2023/04/14 03:16:05;;;;;;;6.05;2.47;;;3.60;99.90;;;;;;5032453;28;20056;-42
2023/04/14 03:18:33;;;;;;;8.73;2.47;;;3.70;99.90;;;;;;5038786;28;20053;-43
2023/04/14 03:21:01;;;;;;;12.63;3.50;;;3.70;99.90;;;;;;5029237;28;20045;-41
2023/04/14 03:23:27;;;;;;;6.68;2.75;;;3.70;99.90;;;;;;5039766;28;20067;-41
2023/04/14 03:25:54;;;;;;;6.60;2.47;;;3.50;99.90;;;;;;5033633;28;20091;-44
2023/04/14 03:28:23;;;;;;;11.90;2.65;;;4.00;99.90;;;;;;5034068;28;21282;-43
2023/04/14 03:30:52;;;;;;;7.88;2.60;;;3.70;99.90;;;;;;5041691;28;20053;-41
2023/04/14 03:33:22;;;;;;;6.75;2.30;;;3.70;99.90;;;;;;5036472;28;20061;-41
2023/04/14 03:35:51;;;;;;;4.03;2.28;;;3.70;99.90;;;;;;5039518;28;20349;-41
2023/04/14 03:38:19;;;;;;;7.15;2.28;;;3.70;99.90;;;;;;5034301;28;20044;-42
2023/04/14 03:40:46;;;;;;;7.53;2.28;;;3.60;99.90;;;;;;5019884;28;20086;-41
2023/04/14 03:43:18;;;;;;;9.63;2.70;;;3.70;99.90;;;;;;5031471;28;20048;-42
2023/04/14 03:45:47;;;;;;;7.97;2.38;;;3.60;99.90;;;;;;5032963;28;20072;-40
2023/04/14 03:48:15;;;;;;;10.55;2.50;;;3.80;99.90;;;;;;5036923;28;20088;-43
2023/04/14 03:50:44;;;;;;;9.70;2.95;;;3.50;99.90;;;;;;5020833;28;20573;-41
2023/04/14 03:53:13;;;;;;;8.57;2.92;;;3.40;99.90;;;;;;5035394;28;20125;-42
2023/04/14 03:55:41;;;;;;;7.50;2.50;;;3.30;99.90;;;;;;5037774;28;20049;-42
2023/04/14 03:58:09;;;;;;;6.28;2.38;;;3.20;99.90;;;;;;5040481;28;20059;-41
2023/04/14 04:00:37;;;;;;;13.10;3.08;;;3.20;99.90;;;;;;5029567;28;20049;-41
2023/04/14 04:03:04;;;;;;;8.95;3.05;;;3.20;99.90;;;;;;5030093;28;20095;-41
2023/04/14 04:05:32;;;;;;;7.68;2.58;;;3.00;99.90;;;;;;5037953;28;20116;-41
2023/04/14 04:08:03;;;;;;;9.02;2.67;;;2.90;99.90;;;;;;5013577;28;20045;-43
2023/04/14 04:10:33;;;;;;;10.50;3.22;;;2.80;99.90;;;;;;5021467;28;20037;-42
2023/04/14 04:13:01;;;;;;;8.65;3.35;;;2.80;99.90;;;;;;5036193;28;20060;-45
2023/04/14 04:15:28;;;;;;;8.07;4.38;;;2.80;99.90;;;;;;5036116;28;20049;-43
2023/04/14 04:17:55;;;;;;;7.40;3.33;;;2.70;99.90;;;;;;5013442;28;20033;-41
2023/04/14 04:20:21;;;;;;;12.38;4.55;;;2.70;99.90;;;;;;5028703;28;20223;-41
2023/04/14 04:22:50;;;;;;;7.07;3.35;;;2.70;99.90;;;;;;5034841;28;20061;-42
2023/04/14 04:25:17;;;;;;;8.40;3.47;;;2.70;99.90;;;;;;5039982;28;20116;-42
2023/04/14 04:27:43;;;;;;;8.85;3.42;;;2.50;99.90;;;;;;5033858;28;20045;-41
2023/04/14 04:30:10;;;;;;;9.35;2.88;;;2.40;99.90;;;;;;5029193;28;20033;-43
2023/04/14 04:32:37;;;;;;;11.15;3.25;;;2.40;99.90;;;;;;5030380;28;20060;-41
2023/04/14 04:35:05;;;;;;;10.25;4.80;;;2.30;99.90;;;;;;5020584;28;20167;-47
2023/04/14 04:37:32;;;;;;;7.18;3.90;;;2.20;99.90;;;;;;5036740;28;20045;-42
2023/04/14 04:39:58;;;;;;;8.30;3.22;;;;;;;;;;5030482;28;20068;-43
2023/04/14 04:42:24;;;;;;;9.35;3.30;;;2.50;99.90;;;;;;5033707;28;20048;-42
2023/04/14 04:44:53;;;;;;;10.00;3.80;;;2.10;99.90;;;;;;5034891;28;20048;-42
2023/04/14 04:47:19;;;;;;;7.20;3.30;;;2.30;99.90;;;;;;5038035;28;20045;-44
2023/04/14 04:49:45;;;;;;;11.55;3.70;;;;;;;;;;5039719;28;20045;-41
2023/04/14 04:52:11;;;;;;;6.13;3.03;;;;;;;;;;5032886;28;20041;-42
2023/04/14 04:54:36;;;;;;;8.63;3.38;;;2.40;99.90;;;;;;5039295;28;20080;-41
2023/04/14 04:57:02;;;;;;;9.65;3.67;;;2.30;99.90;;;;;;5040561;28;20077;-44
2023/04/14 04:59:28;;;;;;;6.97;3.50;;;;;;;;;;5030349;28;20045;-42
2023/04/14 05:01:54;;;;;;;10.10;3.70;;;;;;;;;;5036802;28;20467;-42
2023/04/14 05:04:20;;;;;;;12.55;4.13;;;;;;;;;;5030743;28;20080;-41
2023/04/14 05:06:46;;;;;;;11.13;4.28;;;2.70;99.90;;;;;;5032844;28;20124;-41
2023/04/14 05:09:12;;;;;;;10.63;4.10;;;2.50;99.90;;;;;;5034495;28;20041;-42
2023/04/14 05:11:38;;;;;;;13.27;4.43;;;2.90;99.90;;;;;;5040263;28;20037;-43
2023/04/14 05:14:04;;;;;;;12.43;4.78;;;;;;;;;;5031063;28;20103;-42
2023/04/14 05:16:30;;;;;;;13.02;3.72;;;;;;;;;;5028972;28;20124;-42
2023/04/14 05:18:56;;;;;;;8.68;4.40;;;3.30;99.90;;;;;;5039282;28;20799;-42
2023/04/14 05:21:22;;;;;;;10.52;4.22;;;;;;;;;;5037710;28;20049;-42
2023/04/14 05:23:48;;;;;;;8.07;4.00;;;3.60;99.90;;;;;;5014476;28;20060;-41
2023/04/14 05:26:15;;;;;;;7.00;4.25;;;;;;;;;;5037025;28;20041;-42
2023/04/14 05:29:17;;;;;;;10.13;4.10;;;4.20;99.90;;;;;;5026619;28;20056;-42
2023/04/14 05:31:43;;;;;;;10.25;4.78;;;4.50;99.90;;;;;;5031029;28;20376;-41
2023/04/14 05:49:47;;;;;;;9.13;3.17;;;8.70;99.90;;;;;;5029419;28;20032;-46
2023/04/14 06:11:03;;;;;;;6.00;2.47;;;13.70;99.90;;;;;;5028279;28;20040;-51
2023/04/14 06:34:12;;;;;;;4.70;1.42;;;18.40;88.60;;;;;;4953675;28;20070;-50
2023/04/14 06:44:42;;;;;;;7.50;1.52;;;17.30;99.90;;;;;;4950480;28;20061;-51
2023/04/14 07:17:30;;;;;;;4.18;0.82;;;16.10;90.30;;;;;;4952898;28;20037;-48
2023/04/14 07:23:45;;;;;;;7.50;1.20;;;;;;;;;;4954993;28;20065;-48
2023/04/14 07:34:31;;;;;;;7.53;1.33;;;13.30;91.20;;;;;;4950125;28;20062;-51
2023/04/14 07:37:15;;;;;;;7.85;1.95;;;13.10;99.00;;;;;;4954621;28;20046;-50
2023/04/14 07:43:46;;;;;;;7.72;1.42;;;13.10;95.30;;;;;;5010260;28;20041;-51
2023/04/14 07:57:16;;;;;;;9.57;0.90;;;;;;;;;;4932587;28;20024;-50
2023/04/14 08:11:01;;;;;;;5.38;0.45;;;15.30;86.40;;;;;;5009524;28;20873;-57
2023/04/14 08:21:22;;;;;;;6.10;0.47;;;18.50;78.30;;;;;;4950993;28;20037;-57
2023/04/14 08:28:08;;;;;;;7.93;1.48;;;20.00;76.10;;;;;;4939318;28;20030;-57
2023/04/14 08:55:40;;;;;;;9.20;1.05;;;21.80;66.20;;;;;;4945685;28;21299;-47
2023/04/14 08:59:04;;;;;;;8.90;0.88;;;21.20;71.80;;;;;;4953718;28;20047;-43
2023/04/14 09:02:20;;;;;;;3.75;0.63;;;20.40;66.40;;;;;;4947037;28;20160;-44
2023/04/14 09:20:14;;;;;;;4.78;0.68;;;21.40;65.80;;;;;;5025244;28;20036;-44
2023/04/14 09:23:10;;;;;;;7.90;1.42;;;22.20;63.10;;;;;;5017345;28;20063;-44
2023/04/14 09:29:58;;;;;;;6.35;0.80;;;23.10;62.60;;;;;;5026963;28;20132;-44
2023/04/14 09:58:00;;;;;;;7.20;1.40;;;20.50;65.10;;;;;;5032552;28;20039;-45
2023/04/14 10:07:54;;;;;;;8.45;1.65;;;20.70;64.40;;;;;;5026005;28;20116;-44
2023/04/14 10:11:14;;;;;;;6.13;1.38;;;20.70;65.40;;;;;;5030648;28;20212;-44
2023/04/14 10:26:23;;;;;;;7.78;2.10;;;19.70;64.50;;;;;;5031125;28;20052;-46
2023/04/14 10:29:10;;;;;;;6.50;1.55;;;19.80;64.90;;;;;;5024805;28;20423;-48
2023/04/14 11:19:02;;;;;;;4.13;1.17;;;16.30;76.00;;;;;;5030273;28;20033;-45
2023/04/14 11:47:46;;;;;;;4.05;0.68;;;15.70;69.90;;;;;;5028208;28;20138;-47
2023/04/14 11:57:43;;;;;;;4.32;0.93;;;15.80;71.40;;;;;;5008369;28;20037;-41
2023/04/14 12:33:50;;;;;;;5.65;1.25;;;15.30;72.80;;;;;;5021095;28;20501;-42
2023/04/14 12:36:15;;;;;;;8.18;1.30;;;15.50;73.90;;;;;;5019729;28;20136;-41
2023/04/14 12:39:16;;;;;;;5.13;1.35;;;15.60;76.50;;;;;;5019609;28;20576;-39
2023/04/14 12:46:07;;;;;;;5.05;1.70;;;15.70;72.20;;;;;;4988621;28;20071;-40
2023/04/14 12:49:45;;;;;;;7.10;1.35;;;15.60;67.90;;;;;;5010953;28;20059;-42
2023/04/14 12:53:49;;;;;;;7.35;1.80;;;15.80;68.20;;;;;;5014997;28;20723;-41
2023/04/14 12:57:28;;;;;;;5.43;1.70;;;16.10;67.90;;;;;;5031180;28;20056;-43
2023/04/14 14:14:22;;;;;;;5.47;1.48;;;15.60;69.60;;;;;;4854202;29;20060;-53
2023/04/14 14:17:07;;;;;;;5.00;1.83;;;15.50;70.30;;;;;;4843591;29;20507;-54
2023/04/14 14:37:47;;;;;;;7.43;1.70;;;15.30;71.20;;;;;;4928182;28;21001;-56
2023/04/14 14:44:34;;;;;;;7.85;1.48;;;15.00;72.00;;;;;;4929753;28;20247;-58
2023/04/14 14:50:46;;;;;;;5.57;1.65;;;15.40;74.00;;;;;;4975917;28;20053;-58
2023/04/14 14:53:12;;;;;;;8.25;1.77;;;;;;;;;;4938477;28;20066;-56
2023/04/14 14:55:38;;;;;;;4.97;1.52;;;15.50;75.60;;;;;;5021225;28;20514;-50
2023/04/14 14:58:05;;;;;;;6.55;1.55;;;15.50;71.10;;;;;;5027656;28;20052;-50
2023/04/14 15:00:30;;;;;;;4.40;1.70;;;15.60;72.10;;;;;;5028838;28;20056;-55
2023/04/14 15:02:56;;;;;;;7.32;1.83;;;15.30;72.20;;;;;;5030328;28;20095;-59
2023/04/14 15:05:22;;;;;;;8.20;1.75;;;15.90;72.10;;;;;;5002352;28;20049;-56
2023/04/14 15:07:48;;;;;;;6.05;1.67;;;16.10;72.50;;;;;;5038467;28;20136;-59
2023/04/14 15:10:14;;;;;;;7.43;1.70;;;15.90;71.70;;;;;;5029379;28;20140;-56
2023/04/14 15:12:49;;;;;;;5.60;1.45;;;16.00;72.10;;;;;;5017877;28;20040;-56
2023/04/14 15:15:17;;;;;;;5.78;1.80;;;16.20;73.20;;;;;;5013909;28;20045;-57
2023/04/14 15:17:43;;;;;;;4.50;1.63;;;16.10;72.50;;;;;;5030111;28;20091;-52
2023/04/14 15:20:09;;;;;;;6.03;1.00;;;16.10;73.80;;;;;;5038288;28;20119;-51
2023/04/14 15:22:35;;;;;;;7.97;1.50;;;16.20;71.20;;;;;;5035588;28;20072;-53
2023/04/14 15:25:01;;;;;;;5.82;1.73;;;16.10;71.40;;;;;;5040580;28;20067;-52
2023/04/14 15:27:40;;;;;;;8.43;2.63;;;16.10;77.50;;;;;;4808033;28;10001270;-52
2023/04/14 15:30:06;;;;;;;6.20;2.08;;;16.00;71.10;;;;;;5043785;28;20222;-53
2023/04/14 15:32:32;;;;;;;11.32;2.60;;;16.00;70.20;;;;;;5037610;28;20060;-52
2023/04/14 15:34:57;;;;;;;8.68;2.72;;;15.90;76.90;;;;;;5039747;28;20131;-50
2023/04/14 15:37:24;;;;;;;11.77;3.97;;;15.80;71.00;;;;;;5044148;28;20087;-53
2023/04/14 15:39:50;;;;;;;12.25;3.20;;;15.60;70.50;;;;;;5042553;28;20477;-50
2023/04/14 15:42:16;;;;;;;7.88;2.97;;;15.50;70.80;;;;;;5038712;28;20057;-53
2023/04/14 15:44:42;;;;;;;6.95;3.08;;;15.40;72.20;;;;;;5039960;28;20045;-53
2023/04/14 15:47:07;;;;;;;7.32;2.35;;;15.30;73.60;;;;;;5041622;28;20676;-53
2023/04/14 15:49:33;;;;;;;7.63;2.38;;;15.00;73.70;;;;;;5039289;28;20037;-53
2023/04/14 15:51:59;;;;;;;7.20;2.55;;;15.10;73.10;;;;;;5033242;28;20123;-53
2023/04/14 15:54:24;;;;;;;10.65;2.80;;;15.10;80.20;;;;;;5040658;28;20111;-52
2023/04/14 15:56:53;;;;;;;9.50;2.40;;;15.10;81.30;;;;;;5037812;28;20112;-52
2023/04/14 15:59:20;;;;;;;7.43;2.30;;;15.00;76.90;;;;;;5008793;28;20060;-53
2023/04/14 16:01:46;;;;;;;6.50;2.20;;;15.00;74.60;;;;;;5033067;28;20176;-53
2023/04/14 16:04:12;;;;;;;5.38;2.15;;;15.00;73.40;;;;;;5035791;28;20148;-51
2023/04/14 16:06:37;;;;;;;6.20;1.70;;;14.90;73.20;;;;;;5040496;28;20041;-51
2023/04/14 16:09:03;;;;;;;5.95;1.08;;;14.80;72.80;;;;;;5039900;28;20055;-52
2023/04/14 16:11:29;;;;;;;14.05;1.92;;;14.70;79.10;;;;;;5034629;28;20041;-50
2023/04/14 16:13:56;;;;;;;8.40;1.60;;;14.70;90.00;;;;;;5047201;28;20056;-53
2023/04/14 16:16:23;;;;;;;8.25;1.38;;;14.50;83.20;;;;;;5040335;28;20646;-53
2023/04/14 16:18:48;;;;;;;11.00;2.17;;;14.30;68.80;;;;;;5037385;28;20049;-53
2023/04/14 16:21:14;;;;;;;7.45;1.75;;;14.10;90.80;;;;;;5042334;28;20119;-50
2023/04/14 16:23:40;;;;;;;5.30;1.52;;;14.00;73.00;;;;;;5043316;28;20119;-52
2023/04/14 16:26:06;;;;;;;7.78;1.88;;;13.90;68.20;;;;;;5036549;28;20069;-50
2023/04/14 16:28:33;;;;;;;6.55;1.58;;;13.60;70.80;;;;;;5037844;28;20045;-53
2023/04/14 16:31:00;;;;;;;11.40;2.53;;;13.70;78.00;;;;;;5034660;28;20550;-52
2023/04/14 16:33:26;;;;;;;5.82;1.92;;;13.60;72.60;;;;;;5032074;28;20593;-53
2023/04/14 16:35:52;;;;;;;6.93;1.70;;;13.50;77.30;;;;;;5037408;28;20045;-54
2023/04/14 16:38:18;;;;;;;9.25;2.17;;;13.40;78.70;;;;;;5036622;28;20131;-52
2023/04/14 16:40:52;;;;;;;5.70;1.92;;;13.40;84.40;;;;;;5031810;28;20059;-53
2023/04/14 16:43:17;;;;;;;8.35;2.20;;;13.40;88.20;;;;;;5036772;28;20041;-53
2023/04/14 16:45:44;;;;;;;7.47;2.33;;;13.30;86.80;;;;;;5031719;28;20091;-52
2023/04/14 16:48:09;;;;;;;6.95;2.20;;;13.30;87.40;;;;;;5034157;28;20037;-53
2023/04/14 16:50:36;;;;;;;7.25;1.83;;;13.30;84.90;;;;;;5037734;28;20376;-53
2023/04/14 16:53:01;;;;;;;7.47;1.98;;;13.80;82.70;;;;;;5028160;28;20112;-53
2023/04/14 16:55:27;;;;;;;4.47;1.70;;;13.70;81.50;;;;;;5038554;28;20033;-54
2023/04/14 16:57:53;;;;;;;6.55;2.05;;;13.30;81.30;;;;;;5031399;28;20124;-53
2023/04/14 17:00:20;;;;;;;7.07;2.40;;;13.40;84.10;;;;;;5037770;28;20052;-53
2023/04/14 17:02:45;;;;;;;7.22;2.67;;;13.30;83.80;;;;;;5036193;28;20037;-53
2023/04/14 17:05:14;;;;;;;6.07;2.47;;;13.30;79.40;;;;;;5012236;28;20041;-53
2023/04/14 17:07:41;;;;;;;7.35;2.78;;;13.30;85.30;;;;;;5036340;28;20041;-53
2023/04/14 17:10:07;;;;;;;7.93;2.72;;;13.30;85.60;;;;;;5035901;28;20061;-52
2023/04/14 17:12:33;;;;;;;9.60;2.65;;;13.30;85.60;;;;;;5030770;28;20513;-52
2023/04/14 17:14:59;;;;;;;9.63;3.45;;;13.30;85.90;;;;;;5030244;28;20041;-54
2023/04/14 17:17:26;;;;;;;7.72;2.50;;;13.30;94.60;;;;;;5033821;28;20052;-52
2023/04/14 17:19:52;;;;;;;7.22;2.72;;;13.10;85.90;;;;;;5015557;28;20041;-51
2023/04/14 17:22:17;;;;;;;7.30;2.70;;;12.90;88.60;;;;;;5036581;28;20109;-51
2023/04/14 17:24:44;;;;;;;9.15;3.00;;;13.00;92.00;;;;;;5031923;28;20123;-53
2023/04/14 17:27:11;;;;;;;6.97;3.20;;;13.00;95.50;;;;;;5036106;28;20061;-51
2023/04/14 17:29:36;;;;;;;8.90;3.28;;;12.80;91.50;;;;;;5021903;28;20041;-53
2023/04/14 17:32:03;;;;;;;10.32;3.00;;;12.60;97.20;;;;;;5036511;28;20083;-53
2023/04/14 17:34:29;;;;;;;8.10;3.17;;;;;;;;;;5036839;28;20053;-52
2023/04/14 17:36:56;;;;;;;5.95;1.90;;;12.70;97.70;;;;;;5032639;28;20103;-51
2023/04/14 17:39:25;;;;;;;7.80;2.53;;;12.30;97.50;;;;;;5037595;28;20045;-53
2023/04/14 17:41:55;;;;;;;7.25;2.28;;;12.40;91.40;;;;;;5035405;28;20510;-52
2023/04/14 17:44:27;;;;;;;5.43;2.08;;;12.60;83.10;;;;;;5022682;28;20632;-51
2023/04/14 17:46:52;;;;;;;;;;;12.40;77.50;;;;;;5034692;28;20053;-52
2023/04/14 17:49:20;;;;;;;4.90;2.35;;;12.10;80.30;;;;;;5033666;28;19936;-51
2023/04/14 17:51:46;;;;;;;5.78;2.13;;;;;;;;;;5030871;28;20068;-53
2023/04/14 17:54:12;;;;;;;5.75;2.13;;;11.80;80.80;;;;;;5028643;28;20056;-52
2023/04/14 17:56:37;;;;;;;5.85;2.22;;;11.80;78.50;;;;;;5031950;28;20033;-53
2023/04/14 17:59:03;;;;;;;4.63;1.70;;;;;;;;;;5030180;28;20815;-52
2023/04/14 18:01:29;;;;;;;5.57;2.00;;;11.40;93.60;;;;;;5032659;28;20051;-52
2023/04/14 18:03:58;;;;;;;7.93;3.03;;;;;;;;;;5037874;28;20045;-52
2023/04/14 18:06:24;;;;;;;4.97;2.95;;;;;;;;;;5034417;28;20095;-52
2023/04/14 18:08:50;;;;;;;5.43;2.10;;;11.30;97.10;;;;;;5027707;28;20053;-50
2023/04/14 18:11:16;;;;;;;4.50;2.05;;;;;;;;;;5032028;28;20200;-50
2023/04/14 18:13:42;;;;;;;6.82;2.08;;;;;;;;;;5031967;28;20123;-53
2023/04/14 18:16:08;;;;;;;4.63;2.05;;;;;;;;;;5032376;28;20475;-53
2023/04/14 18:18:34;;;;;;;6.78;2.05;;;;;;;;;;5025704;28;20049;-52
2023/04/14 18:21:00;;;;;;;5.80;1.98;;;;;;;;;;5038446;28;20045;-50
2023/04/14 18:23:27;;;;;;;3.35;1.63;;;;;;;;;;5031665;28;20119;-52
2023/04/14 18:26:00;;;;;;;5.55;2.03;;;10.20;86.60;;;;;;5032063;28;20045;-51
2023/04/14 18:28:26;;;;;;;4.25;1.50;;;10.10;93.40;;;;;;5042445;28;20060;-52
2023/04/14 18:30:54;;;;;;;6.45;2.15;;;9.80;90.70;;;;;;5031160;28;20053;-52
2023/04/14 18:33:21;;;;;;;4.03;2.28;;;;;;;;;;5036074;28;20484;-53
2023/04/14 18:35:50;;;;;;;8.25;2.67;;;9.60;89.70;;;;;;5035141;28;20080;-53
2023/04/14 18:38:17;;;;;;;5.78;2.10;;;;;;;;;;5029739;28;20077;-52
2023/04/14 18:40:43;;;;;;;5.13;1.95;;;9.60;90.00;;;;;;5030245;28;20447;-52
2023/04/14 18:43:09;;;;;;;7.68;2.03;;;9.70;90.00;;;;;;5040662;28;20041;-53
2023/04/14 18:45:35;;;;;;;5.72;1.80;;;10.00;90.10;;;;;;5030106;28;20049;-52
2023/04/14 18:48:01;;;;;;;4.80;1.80;;;9.50;90.30;;;;;;5031924;28;20628;-50
2023/04/14 18:50:27;;;;;;;5.45;1.70;;;9.30;90.60;;;;;;5031056;28;20052;-51
2023/04/14 18:52:54;;;;;;;3.72;1.70;;;9.40;90.80;;;;;;5032203;28;20060;-52
2023/04/14 18:55:20;;;;;;;4.70;1.58;;;9.30;91.00;;;;;;5031384;28;20085;-52
2023/04/14 18:57:46;;;;;;;3.45;1.23;;;9.00;91.20;;;;;;5031533;28;20431;-51
2023/04/14 19:00:12;;;;;;;4.95;1.40;;;9.00;91.50;;;;;;5029052;28;20080;-53
2023/04/14 19:02:38;;;;;;;6.72;1.27;;;9.30;91.70;;;;;;5043137;28;20160;-51
2023/04/14 19:05:06;;;;;;;5.82;1.60;;;9.00;93.30;;;;;;5029232;28;20049;-51
2023/04/14 19:07:32;;;;;;;3.97;1.23;;;;;;;;;;5034546;28;20128;-51
2023/04/14 19:09:59;;;;;;;7.00;1.63;;;;;;;;;;5033456;28;20069;-52
2023/04/14 19:12:26;;;;;;;5.72;1.60;;;;;;;;;;5027716;28;20763;-50
2023/04/14 19:14:52;;;;;;;5.53;2.03;;;8.50;99.90;;;;;;5027903;28;20124;-51
2023/04/14 19:17:17;;;;;;;5.82;1.92;;;8.80;99.90;;;;;;5006949;28;20116;-52
2023/04/14 19:19:43;;;;;;;3.97;1.48;;;8.50;99.90;;;;;;5037416;28;20048;-53
2023/04/14 19:22:09;;;;;;;4.88;1.10;;;8.60;99.90;;;;;;5032527;28;21162;-53
2023/04/14 19:24:35;;;;;;;4.90;1.65;;;;;;;;;;5029481;28;20049;-52
2023/04/14 19:27:03;;;;;;;5.93;1.45;;;;;;;;;;5034884;28;20049;-50
2023/04/14 19:29:29;;;;;;;4.93;1.77;;;8.50;98.20;;;;;;5035563;28;20456;-53
2023/04/14 19:31:55;;;;;;;8.75;2.40;;;9.00;97.50;;;;;;5031502;28;20139;-52
2023/04/14 19:34:20;;;;;;;6.18;1.90;;;8.90;97.90;;;;;;5023183;28;20574;-51
2023/04/14 19:36:47;;;;;;;7.30;2.28;;;8.40;97.80;;;;;;5034172;28;20482;-52
2023/04/14 19:39:13;;;;;;;8.65;2.40;;;;;;;;;;5032873;28;20116;-52
2023/04/14 19:41:39;;;;;;;7.40;2.15;;;;;;;;;;5029081;28;20356;-53
2023/04/14 19:44:05;;;;;;;9.77;2.13;;;8.30;99.10;;;;;;5038364;28;20400;-51
2023/04/14 19:46:34;;;;;;;7.05;2.45;;;8.90;98.50;;;;;;5014656;28;20042;-52
2023/04/14 19:49:00;;;;;;;13.98;3.00;;;;;;;;;;5029027;28;20079;-52
2023/04/14 19:51:27;;;;;;;6.13;2.10;;;;;;;;;;5034826;28;20044;-51
2023/04/14 19:53:53;;;;;;;7.35;2.10;;;;;;;;;;5037133;28;20056;-53
2023/04/14 19:56:19;;;;;;;7.55;2.55;;;8.10;99.90;;;;;;5028563;28;20045;-51
2023/04/14 19:58:45;;;;;;;7.95;2.78;;;8.60;99.30;;;;;;5030625;28;20025;-52
2023/04/14 20:01:11;;;;;;;10.15;2.58;;;7.90;99.90;;;;;;5032838;28;20128;-51
2023/04/14 20:03:37;;;;;;;5.70;2.47;;;8.40;99.90;;;;;;5043368;28;20053;-50
2023/04/14 20:06:03;;;;;;;6.15;2.40;;;8.30;99.90;;;;;;5034709;28;20079;-52
2023/04/14 20:08:29;;;;;;;8.90;2.17;;;8.60;99.90;;;;;;5041039;28;20041;-51
2023/04/14 20:10:55;;;;;;;9.82;2.40;;;8.40;99.90;;;;;;5034227;28;20060;-53
2023/04/14 20:13:23;;;;;;;9.90;3.22;;;8.20;99.90;;;;;;5036076;28;20045;-49
2023/04/14 20:15:52;;;;;;;6.70;2.50;;;8.30;99.90;;;;;;5032775;28;20036;-50
2023/04/14 20:18:18;;;;;;;12.32;3.72;;;7.70;99.90;;;;;;5034174;28;20053;-53
2023/04/14 20:20:45;;;;;;;6.25;2.20;;;7.90;99.90;;;;;;5036382;28;20047;-52
2023/04/14 20:23:11;;;;;;;8.27;2.08;;;8.20;99.90;;;;;;5039920;28;20123;-50
2023/04/14 20:25:37;;;;;;;8.88;2.38;;;8.10;99.90;;;;;;5037497;28;20037;-51
2023/04/14 20:28:04;;;;;;;12.30;2.70;;;8.10;99.90;;;;;;5031439;28;20033;-52
2023/04/14 20:30:33;;;;;;;6.60;2.10;;;7.60;99.90;;;;;;5035128;28;20609;-53
2023/04/14 20:33:03;;;;;;;6.07;2.35;;;8.00;99.90;;;;;;5037399;28;20572;-52
2023/04/14 20:35:29;;;;;;;5.53;2.25;;;7.60;99.90;;;;;;5036083;28;20056;-52
2023/04/14 20:37:56;;;;;;;10.80;2.72;;;8.00;99.90;;;;;;5028092;28;20037;-50
2023/04/14 20:40:21;;;;;;;10.43;3.03;;;8.00;99.90;;;;;;5035035;28;20040;-52
2023/04/14 20:42:47;;;;;;;7.30;3.03;;;8.50;99.90;;;;;;5033192;28;20478;-53
2023/04/14 20:45:13;;;;;;;5.20;2.60;;;7.70;99.90;;;;;;5034634;28;20141;-50
2023/04/14 20:47:39;;;;;;;7.07;2.05;;;7.40;99.90;;;;;;5034228;28;20071;-53
2023/04/14 20:50:06;;;;;;;6.90;2.13;;;7.80;99.90;;;;;;5039702;28;20060;-52
2023/04/14 20:52:33;;;;;;;9.73;2.90;;;7.30;99.90;;;;;;5032564;28;20049;-50
2023/04/14 20:55:01;;;;;;;7.18;2.35;;;8.20;99.90;;;;;;5033615;28;20041;-51
2023/04/14 20:57:27;;;;;;;10.00;3.10;;;7.70;99.90;;;;;;5033193;28;20460;-51
2023/04/14 20:59:52;;;;;;;8.02;2.58;;;7.20;99.90;;;;;;5035794;28;20048;-52
2023/04/14 21:02:18;;;;;;;7.05;3.63;;;8.20;99.90;;;;;;5043575;28;20037;-50
2023/04/14 21:04:44;;;;;;;8.15;3.33;;;7.80;99.90;;;;;;5034529;28;20075;-51
2023/04/14 21:07:10;;;;;;;7.70;3.40;;;7.30;99.90;;;;;;5036951;28;20041;-51
2023/04/14 21:09:35;;;;;;;8.18;3.40;;;7.70;99.90;;;;;;5035613;28;20098;-52
2023/04/14 21:12:01;;;;;;;9.43;3.55;;;7.60;99.90;;;;;;5027292;28;20083;-50
2023/04/14 21:14:27;;;;;;;11.77;3.38;;;7.20;99.90;;;;;;5033603;28;20088;-52
2023/04/14 21:16:53;;;;;;;9.63;3.47;;;;;;;;;;5027664;28;20037;-53
2023/04/14 21:19:18;;;;;;;6.78;3.47;;;6.50;99.90;;;;;;5033611;28;20233;-50
2023/04/14 21:21:44;;;;;;;5.97;3.13;;;7.60;99.90;;;;;;5033735;28;20155;-52